createdAt,value
2022-10-22T00:00:17.783Z,4.63
2022-10-22T00:02:45.545Z,5.15
2022-10-22T00:05:12.884Z,5.95
2022-10-22T00:07:40.247Z,4.07
2022-10-22T00:10:08.788Z,6.72
2022-10-22T00:12:36.095Z,5.13
2022-10-22T00:15:04.853Z,5.38
2022-10-22T00:17:32.051Z,5.68
2022-10-22T00:19:59.171Z,4.63
2022-10-22T00:22:26.402Z,5.68
2022-10-22T00:24:53.584Z,4.88
2022-10-22T00:27:20.726Z,5.20
2022-10-22T00:29:48.034Z,5.43
2022-10-22T00:32:15.587Z,4.82
2022-10-22T00:34:42.984Z,4.68
2022-10-22T00:37:10.387Z,6.32
2022-10-22T00:39:37.580Z,3.40
2022-10-22T00:42:04.875Z,4.28
2022-10-22T00:45:08.500Z,3.33
2022-10-22T00:47:44.371Z,4.65
2022-10-22T00:50:19.465Z,6.90
2022-10-22T00:52:47.870Z,4.72
2022-10-22T00:55:16.010Z,3.63
2022-10-22T00:57:43.752Z,4.97
2022-10-22T01:00:11.496Z,5.13
2022-10-22T01:02:39.622Z,4.05
2022-10-22T01:05:07.541Z,4.80
2022-10-22T01:07:41.090Z,3.80
2022-10-22T01:10:28.231Z,4.28
2022-10-22T01:13:25.787Z,3.72
2022-10-22T01:15:58.226Z,3.75
2022-10-22T01:18:36.468Z,4.00
2022-10-22T01:21:14.426Z,3.92
2022-10-22T01:24:00.267Z,3.85
2022-10-22T01:26:45.814Z,4.97
2022-10-22T01:29:20.368Z,3.22
2022-10-22T01:31:55.257Z,4.13
2022-10-22T01:34:23.616Z,3.53
2022-10-22T01:36:51.859Z,4.53
2022-10-22T01:39:20.787Z,3.28
2022-10-22T01:41:48.048Z,4.18
2022-10-22T01:47:08.918Z,3.15
2022-10-22T01:50:09.081Z,3.90
2022-10-22T01:53:00.232Z,4.53
2022-10-22T01:55:48.705Z,2.75
2022-10-22T01:58:49.362Z,3.92
2022-10-22T02:04:03.712Z,3.75
2022-10-22T02:06:32.294Z,4.88
2022-10-22T02:09:02.595Z,6.38
2022-10-22T02:11:30.561Z,4.10
2022-10-22T02:14:01.909Z,3.30
2022-10-22T02:16:40.620Z,3.75
2022-10-22T02:19:24.639Z,3.03
2022-10-22T02:21:52.857Z,3.03
2022-10-22T02:24:20.633Z,3.85
2022-10-22T02:27:03.337Z,3.33
2022-10-22T02:30:02.974Z,3.92
2022-10-22T02:32:54.325Z,3.63
2022-10-22T02:35:24.920Z,3.45
2022-10-22T02:40:21.403Z,6.55
2022-10-22T02:42:50.331Z,4.30
2022-10-22T02:45:18.809Z,5.13
2022-10-22T02:47:46.511Z,3.88
2022-10-22T02:50:14.191Z,5.57
2022-10-22T02:52:41.806Z,4.85
2022-10-22T02:55:09.759Z,3.83
2022-10-22T02:57:37.221Z,4.25
2022-10-22T03:00:07.143Z,3.40
2022-10-22T03:02:34.348Z,2.35
2022-10-22T03:05:01.690Z,3.58
2022-10-22T03:07:28.933Z,4.18
2022-10-22T03:09:56.131Z,3.80
2022-10-22T03:12:23.386Z,3.38
2022-10-22T03:14:50.699Z,2.97
2022-10-22T03:17:17.790Z,3.22
2022-10-22T03:19:44.980Z,4.18
2022-10-22T03:22:19.305Z,2.67
2022-10-22T03:24:49.497Z,4.07
2022-10-22T03:27:19.937Z,3.67
2022-10-22T03:29:47.662Z,4.40
2022-10-22T03:32:14.806Z,3.75
2022-10-22T03:34:42.048Z,4.30
2022-10-22T03:37:09.370Z,4.22
2022-10-22T03:39:37.445Z,5.15
2022-10-22T03:42:06.799Z,4.07
2022-10-22T03:44:35.777Z,4.30
2022-10-22T03:47:03.042Z,3.78
2022-10-22T03:49:30.240Z,4.60
2022-10-22T03:51:58.061Z,4.40
2022-10-22T03:54:25.335Z,3.42
2022-10-22T03:56:52.638Z,5.88
2022-10-22T03:59:19.828Z,5.35
2022-10-22T04:01:47.005Z,4.15
2022-10-22T04:04:14.417Z,5.00
2022-10-22T04:06:41.631Z,3.03
2022-10-22T04:09:08.918Z,3.38
2022-10-22T04:11:36.133Z,2.92
2022-10-22T04:14:03.314Z,4.93
2022-10-22T04:16:32.561Z,2.42
2022-10-22T04:18:59.916Z,4.03
2022-10-22T04:21:27.104Z,5.40
2022-10-22T04:23:54.324Z,4.75
2022-10-22T04:26:22.174Z,4.07
2022-10-22T04:28:51.463Z,5.28
2022-10-22T04:31:22.004Z,4.00
2022-10-22T04:33:54.944Z,4.78
2022-10-22T04:36:23.251Z,4.20
2022-10-22T04:38:58.897Z,5.05
2022-10-22T04:41:37.442Z,3.42
2022-10-22T04:44:06.206Z,4.38
2022-10-22T04:46:35.162Z,4.25
2022-10-22T04:49:04.253Z,4.03
2022-10-22T04:51:32.045Z,4.90
2022-10-22T04:53:59.303Z,4.70
2022-10-22T04:56:30.371Z,3.70
2022-10-22T04:59:03.801Z,3.55
2022-10-22T05:01:36.889Z,5.63
2022-10-22T05:04:08.925Z,5.10
2022-10-22T05:06:37.115Z,3.92
2022-10-22T05:09:07.796Z,4.70
2022-10-22T05:11:38.137Z,4.43
2022-10-22T05:14:06.724Z,3.08
2022-10-22T05:16:35.273Z,3.75
2022-10-22T05:19:02.867Z,4.60
2022-10-22T05:21:30.391Z,4.10
2022-10-22T05:24:02.657Z,4.90
2022-10-22T05:26:30.205Z,3.15
2022-10-22T05:28:57.434Z,4.20
2022-10-22T05:31:24.886Z,4.75
2022-10-22T05:33:52.107Z,4.80
2022-10-22T05:36:21.483Z,3.08
2022-10-22T05:38:49.811Z,5.40
2022-10-22T05:41:19.699Z,4.55
2022-10-22T05:43:47.263Z,3.75
2022-10-22T05:46:22.577Z,7.25
2022-10-22T05:48:54.978Z,4.70
2022-10-22T05:51:23.394Z,7.22
2022-10-22T05:53:55.448Z,4.05
2022-10-22T05:56:22.985Z,5.35
2022-10-22T05:58:50.610Z,5.38
2022-10-22T06:01:20.351Z,3.83
2022-10-22T06:03:47.885Z,4.63
2022-10-22T06:06:27.467Z,4.13
2022-10-22T06:08:56.081Z,3.60
2022-10-22T06:11:24.190Z,3.75
2022-10-22T06:13:52.144Z,4.03
2022-10-22T06:16:19.486Z,5.65
2022-10-22T06:18:46.787Z,4.30
2022-10-22T06:21:15.680Z,4.20
2022-10-22T06:23:43.527Z,4.13
2022-10-22T06:26:11.644Z,3.38
2022-10-22T06:28:39.370Z,4.15
2022-10-22T06:31:07.044Z,3.50
2022-10-22T06:33:37.349Z,4.45
2022-10-22T06:36:12.384Z,4.53
2022-10-22T06:38:40.330Z,3.88
2022-10-22T06:41:10.850Z,4.30
2022-10-22T06:43:38.512Z,4.68
2022-10-22T06:46:10.081Z,3.55
2022-10-22T06:48:38.837Z,5.10
2022-10-22T06:51:11.213Z,3.28
2022-10-22T06:53:40.418Z,3.28
2022-10-22T06:56:13.131Z,5.05
2022-10-22T06:58:40.890Z,3.35
2022-10-22T07:01:13.492Z,3.83
2022-10-22T07:03:41.732Z,4.75
2022-10-22T07:06:11.921Z,4.15
2022-10-22T07:08:39.923Z,3.38
2022-10-22T07:11:10.086Z,5.35
2022-10-22T07:13:37.549Z,3.50
2022-10-22T07:16:06.830Z,3.70
2022-10-22T07:18:34.830Z,4.47
2022-10-22T07:21:02.744Z,6.18
2022-10-22T07:23:30.551Z,4.45
2022-10-22T07:25:58.171Z,3.67
2022-10-22T07:28:25.772Z,4.38
2022-10-22T07:30:52.986Z,4.07
2022-10-22T07:33:20.584Z,4.30
2022-10-22T07:35:47.772Z,4.28
2022-10-22T07:38:15.092Z,5.57
2022-10-22T07:40:42.426Z,4.75
2022-10-22T07:43:09.651Z,3.33
2022-10-22T07:45:36.838Z,6.53
2022-10-22T07:48:04.226Z,4.10
2022-10-22T07:50:31.465Z,3.72
2022-10-22T07:52:58.856Z,3.92
2022-10-22T07:55:26.478Z,5.55
2022-10-22T07:57:53.762Z,4.72
2022-10-22T08:00:24.474Z,2.65
2022-10-22T08:02:52.898Z,4.40
2022-10-22T08:05:20.278Z,4.20
2022-10-22T08:07:47.538Z,5.47
2022-10-22T08:10:14.946Z,4.47
2022-10-22T08:12:42.595Z,4.25
2022-10-22T08:15:10.710Z,6.57
2022-10-22T08:17:38.088Z,5.03
2022-10-22T08:20:05.712Z,4.80
2022-10-22T08:22:33.020Z,4.07
2022-10-22T08:25:00.632Z,4.38
2022-10-22T08:27:28.014Z,2.00
2022-10-22T08:29:55.266Z,4.13
2022-10-22T08:32:22.514Z,4.05
2022-10-22T08:34:50.122Z,3.65
2022-10-22T08:37:18.080Z,4.32
2022-10-22T08:39:45.781Z,3.92
2022-10-22T08:42:33.896Z,3.80
2022-10-22T08:45:06.959Z,3.70
2022-10-22T08:48:09.240Z,5.03
2022-10-22T08:50:40.090Z,3.42
2022-10-22T08:53:13.436Z,5.47
2022-10-22T08:55:41.263Z,3.42
2022-10-22T08:58:21.621Z,3.90
2022-10-22T09:00:59.674Z,3.40
2022-10-22T09:03:46.787Z,5.22
2022-10-22T09:06:20.245Z,4.22
2022-10-22T09:08:48.426Z,3.42
2022-10-22T09:11:35.239Z,5.25
2022-10-22T09:14:04.000Z,3.53
2022-10-22T09:16:38.832Z,6.15
2022-10-22T09:19:26.134Z,3.05
2022-10-22T09:22:14.687Z,4.05
2022-10-22T09:24:48.997Z,6.00
2022-10-22T09:27:21.762Z,3.75
2022-10-22T09:29:49.366Z,4.05
2022-10-22T09:32:17.306Z,4.18
2022-10-22T09:34:46.309Z,4.20
2022-10-22T09:37:18.498Z,3.63
2022-10-22T09:39:48.664Z,3.55
2022-10-22T09:42:18.721Z,4.03
2022-10-22T09:44:57.643Z,4.57
2022-10-22T09:48:00.645Z,4.60
2022-10-22T09:50:50.146Z,2.72
2022-10-22T09:53:38.668Z,4.18
2022-10-22T09:56:36.114Z,5.00
2022-10-22T09:59:04.036Z,2.47
2022-10-22T10:01:38.730Z,4.05
2022-10-22T10:04:12.590Z,2.75
2022-10-22T10:06:42.696Z,4.05
2022-10-22T10:09:19.651Z,5.30
2022-10-22T10:11:52.192Z,4.32
2022-10-22T10:14:29.894Z,4.32
2022-10-22T10:17:34.756Z,4.78
2022-10-22T10:20:15.218Z,5.13
2022-10-22T10:22:55.315Z,2.92
2022-10-22T10:25:42.702Z,2.83
2022-10-22T10:28:34.539Z,4.25
2022-10-22T10:31:10.541Z,4.15
2022-10-22T10:33:56.479Z,4.15
2022-10-22T10:36:51.628Z,2.95
2022-10-22T10:39:28.018Z,2.97
2022-10-22T10:42:22.603Z,3.47
2022-10-22T10:44:59.511Z,5.05
2022-10-22T10:48:03.507Z,4.57
2022-10-22T10:51:00.163Z,2.42
2022-10-22T10:53:41.420Z,4.15
2022-10-22T10:56:08.628Z,4.25
2022-10-22T10:58:58.893Z,4.00
2022-10-22T11:01:58.449Z,3.20
2022-10-22T11:04:44.461Z,1.63
2022-10-22T11:07:30.293Z,3.60
2022-10-22T11:10:10.172Z,4.63
2022-10-22T11:12:44.620Z,2.45
2022-10-22T11:15:14.731Z,3.33
2022-10-22T11:17:45.903Z,3.42
2022-10-22T11:20:22.488Z,4.50
2022-10-22T11:23:18.189Z,2.60
2022-10-22T11:25:47.834Z,5.18
2022-10-22T11:28:27.877Z,3.90
2022-10-22T11:31:16.113Z,3.65
2022-10-22T11:34:32.200Z,5.18
2022-10-22T11:37:01.119Z,3.33
2022-10-22T11:39:53.971Z,5.63
2022-10-22T11:42:44.985Z,3.47
2022-10-22T11:45:15.165Z,5.78
2022-10-22T11:48:11.833Z,5.38
2022-10-22T11:50:42.868Z,4.93
2022-10-22T11:53:15.799Z,4.30
2022-10-22T11:55:48.950Z,4.70
2022-10-22T11:58:30.931Z,5.03
2022-10-22T12:01:10.297Z,3.92
2022-10-22T12:03:44.180Z,5.13
2022-10-22T12:06:12.249Z,8.65
2022-10-22T12:08:56.493Z,3.72
2022-10-22T12:11:39.897Z,4.68
2022-10-22T12:14:29.981Z,5.55
2022-10-22T12:17:08.656Z,8.85
2022-10-22T12:19:44.132Z,4.97
2022-10-22T12:22:37.816Z,5.05
2022-10-22T12:25:25.728Z,4.85
2022-10-22T12:27:57.450Z,6.45
2022-10-22T12:30:26.002Z,3.58
2022-10-22T12:33:00.536Z,3.10
2022-10-22T12:35:33.800Z,6.20
2022-10-22T12:38:13.482Z,5.13
2022-10-22T12:40:45.836Z,4.28
2022-10-22T12:43:18.491Z,6.55
2022-10-22T12:45:47.899Z,3.70
2022-10-22T12:48:38.999Z,3.53
2022-10-22T12:51:10.732Z,4.40
2022-10-22T12:53:46.957Z,4.00
2022-10-22T12:56:36.202Z,3.20
2022-10-22T12:59:16.133Z,4.20
2022-10-22T13:01:44.101Z,5.93
2022-10-22T13:04:17.413Z,5.13
2022-10-22T13:07:06.254Z,3.60
2022-10-22T13:09:40.684Z,4.97
2022-10-22T13:12:16.740Z,5.75
2022-10-22T13:14:46.452Z,5.57
2022-10-22T13:17:18.551Z,3.47
2022-10-22T13:19:57.686Z,4.47
2022-10-22T13:22:42.513Z,4.47
2022-10-22T13:25:16.108Z,6.72
2022-10-22T13:27:46.125Z,6.07
2022-10-22T13:30:28.025Z,5.95
2022-10-22T13:33:01.210Z,7.90
2022-10-22T13:35:32.660Z,6.20
2022-10-22T13:38:00.982Z,7.47
2022-10-22T13:40:28.328Z,8.35
2022-10-22T13:42:55.544Z,6.47
2022-10-22T13:45:22.826Z,7.25
2022-10-22T13:47:53.481Z,7.20
2022-10-22T13:52:54.456Z,6.72
2022-10-22T13:55:27.516Z,7.93
2022-10-22T14:00:58.523Z,6.82
2022-10-22T14:03:32.456Z,7.85
2022-10-22T14:06:00.350Z,6.25
2022-10-22T14:08:28.278Z,7.38
2022-10-22T14:10:55.850Z,5.55
2022-10-22T14:13:23.619Z,8.13
2022-10-22T14:15:52.519Z,6.82
2022-10-22T14:18:31.760Z,8.15
2022-10-22T14:21:04.968Z,7.10
2022-10-22T14:23:32.902Z,6.53
2022-10-22T14:26:00.932Z,7.05
2022-10-22T14:28:29.672Z,9.05
2022-10-22T14:30:58.866Z,7.07
2022-10-22T14:33:32.049Z,7.88
2022-10-22T14:36:02.631Z,7.65
2022-10-22T14:38:30.181Z,7.18
2022-10-22T14:40:59.553Z,6.40
2022-10-22T14:43:31.487Z,6.68
2022-10-22T14:45:59.222Z,6.88
2022-10-22T14:48:26.503Z,6.85
2022-10-22T14:50:55.234Z,6.50
2022-10-22T14:53:22.410Z,7.22
2022-10-22T14:55:51.690Z,6.20
2022-10-22T14:58:18.882Z,7.75
2022-10-22T15:00:46.099Z,6.68
2022-10-22T15:03:13.328Z,9.45
2022-10-22T15:05:44.823Z,8.90
2022-10-22T15:08:14.098Z,6.28
2022-10-22T15:10:41.821Z,6.50
2022-10-22T15:13:09.203Z,10.05
2022-10-22T15:15:39.493Z,8.23
2022-10-22T15:18:07.347Z,8.15
2022-10-22T15:20:34.500Z,9.43
2022-10-22T15:23:01.763Z,8.07
2022-10-22T15:25:29.076Z,7.60
2022-10-22T15:28:01.823Z,8.02
2022-10-22T15:30:35.262Z,7.53
2022-10-22T15:33:02.581Z,10.52
2022-10-22T15:35:29.691Z,8.57
2022-10-22T15:37:56.964Z,8.15
2022-10-22T15:40:24.123Z,7.97
2022-10-22T15:42:51.290Z,8.65
2022-10-22T15:45:18.490Z,7.13
2022-10-22T15:47:47.671Z,9.63
2022-10-22T15:50:15.432Z,7.43
2022-10-22T15:52:42.683Z,7.50
2022-10-22T15:55:10.850Z,6.65
2022-10-22T15:57:39.190Z,9.27
2022-10-22T16:00:08.046Z,9.43
2022-10-22T16:02:35.244Z,7.85
2022-10-22T16:05:02.506Z,8.95
2022-10-22T16:07:30.676Z,9.88
2022-10-22T16:10:01.848Z,10.27
2022-10-22T16:12:29.039Z,10.20
2022-10-22T16:14:56.317Z,10.18
2022-10-22T16:17:24.625Z,8.00
2022-10-22T16:19:51.812Z,7.80
2022-10-22T16:22:19.019Z,8.68
2022-10-22T16:24:46.219Z,6.65
2022-10-22T16:27:13.490Z,6.75
2022-10-22T16:29:40.820Z,7.22
2022-10-22T16:32:08.352Z,9.27
2022-10-22T16:34:35.593Z,6.70
2022-10-22T16:37:02.838Z,7.53
2022-10-22T16:39:30.180Z,6.65
2022-10-22T16:41:57.405Z,6.53
2022-10-22T16:44:24.693Z,5.75
2022-10-22T16:46:51.990Z,6.90
2022-10-22T16:49:19.265Z,6.75
2022-10-22T16:51:46.500Z,6.35
2022-10-22T16:54:15.729Z,10.70
2022-10-22T16:56:43.016Z,9.52
2022-10-22T16:59:10.186Z,7.10
2022-10-22T17:01:40.953Z,8.07
2022-10-22T17:04:09.064Z,8.93
2022-10-22T17:06:36.760Z,9.48
2022-10-22T17:09:04.716Z,8.32
2022-10-22T17:11:36.444Z,6.80
2022-10-22T17:14:05.973Z,8.18
2022-10-22T17:16:33.192Z,7.60
2022-10-22T17:19:02.897Z,9.35
2022-10-22T17:21:30.140Z,7.67
2022-10-22T17:23:57.873Z,6.57
2022-10-22T17:26:27.185Z,6.97
2022-10-22T17:28:55.145Z,8.48
2022-10-22T17:31:28.571Z,9.63
2022-10-22T17:33:57.111Z,7.03
2022-10-22T17:36:25.414Z,7.50
2022-10-22T17:38:55.291Z,7.20
2022-10-22T17:41:28.405Z,9.23
2022-10-22T17:43:56.779Z,7.65
2022-10-22T17:46:28.816Z,7.70
2022-10-22T17:49:01.904Z,11.48
2022-10-22T17:51:30.607Z,8.43
2022-10-22T17:53:58.193Z,7.50
2022-10-22T17:56:32.539Z,9.90
2022-10-22T17:59:02.965Z,10.82
2022-10-22T18:01:32.994Z,11.23
2022-10-22T18:04:02.921Z,9.30
2022-10-22T18:06:30.800Z,12.35
2022-10-22T18:08:58.712Z,9.65
2022-10-22T18:11:27.877Z,8.82
2022-10-22T18:13:58.719Z,10.65
2022-10-22T18:16:26.549Z,8.95
2022-10-22T18:18:56.261Z,10.15
2022-10-22T18:21:26.148Z,9.67
2022-10-22T18:23:53.396Z,12.32
2022-10-22T18:26:25.809Z,11.85
2022-10-22T18:28:54.586Z,8.52
2022-10-22T18:31:23.663Z,8.25
2022-10-22T18:33:51.609Z,8.70
2022-10-22T18:36:20.981Z,10.45
2022-10-22T18:38:56.799Z,11.70
2022-10-22T18:41:24.530Z,9.32
2022-10-22T18:43:53.190Z,9.18
2022-10-22T18:46:21.149Z,12.00
2022-10-22T18:48:48.539Z,10.68
2022-10-22T18:51:16.190Z,9.88
2022-10-22T18:53:53.707Z,9.57
2022-10-22T18:56:31.002Z,8.57
2022-10-22T18:58:58.284Z,10.13
2022-10-22T19:01:29.551Z,8.40
2022-10-22T19:03:57.689Z,9.88
2022-10-22T19:06:34.440Z,10.38
2022-10-22T19:09:04.753Z,9.68
2022-10-22T19:11:32.631Z,7.88
2022-10-22T19:13:59.693Z,9.65
2022-10-22T19:16:27.378Z,8.63
2022-10-22T19:19:01.592Z,10.30
2022-10-22T19:21:29.109Z,15.27
2022-10-22T19:24:00.673Z,10.38
2022-10-22T19:26:29.174Z,9.27
2022-10-22T19:28:57.509Z,10.52
2022-10-22T19:31:26.751Z,8.75
2022-10-22T19:33:57.478Z,9.65
2022-10-22T19:36:28.189Z,8.77
2022-10-22T19:38:56.189Z,9.38
2022-10-22T19:41:25.912Z,7.65
2022-10-22T19:43:55.091Z,10.57
2022-10-22T19:46:23.420Z,7.20
2022-10-22T19:48:52.403Z,9.32
2022-10-22T19:51:22.277Z,7.95
2022-10-22T19:53:50.327Z,7.95
2022-10-22T19:56:19.598Z,7.32
2022-10-22T19:58:46.925Z,7.72
2022-10-22T20:01:15.827Z,7.70
2022-10-22T20:03:43.515Z,6.60
2022-10-22T20:06:12.259Z,11.05
2022-10-22T20:08:40.014Z,10.73
2022-10-22T20:11:16.476Z,8.10
2022-10-22T20:13:45.514Z,7.65
2022-10-22T20:16:18.758Z,8.50
2022-10-22T20:18:46.453Z,8.93
2022-10-22T20:21:15.366Z,10.70
2022-10-22T20:23:43.187Z,6.55
2022-10-22T20:26:11.100Z,8.07
2022-10-22T20:28:38.825Z,7.80
2022-10-22T20:31:13.858Z,12.02
2022-10-22T20:33:41.283Z,8.85
2022-10-22T20:36:13.625Z,8.40
2022-10-22T20:38:40.938Z,7.95
2022-10-22T20:41:11.410Z,11.25
2022-10-22T20:43:38.687Z,9.85
2022-10-22T20:46:06.174Z,9.30
2022-10-22T20:48:33.864Z,10.60
2022-10-22T20:51:01.998Z,9.23
2022-10-22T20:53:29.225Z,9.20
2022-10-22T20:55:59.346Z,8.93
2022-10-22T20:58:27.929Z,8.68
2022-10-22T21:00:55.679Z,9.23
2022-10-22T21:03:23.757Z,8.65
2022-10-22T21:05:51.040Z,9.05
2022-10-22T21:08:18.323Z,8.00
2022-10-22T21:10:48.951Z,7.68
2022-10-22T21:13:16.999Z,8.77
2022-10-22T21:15:44.196Z,8.55
2022-10-22T21:18:11.393Z,8.32
2022-10-22T21:20:42.158Z,7.82
2022-10-22T21:23:09.610Z,10.70
2022-10-22T21:25:40.721Z,7.28
2022-10-22T21:28:10.494Z,9.98
2022-10-22T21:30:44.198Z,8.63
2022-10-22T21:33:11.396Z,9.75
2022-10-22T21:35:38.720Z,11.98
2022-10-22T21:38:08.011Z,9.40
2022-10-22T21:40:37.929Z,8.48
2022-10-22T21:43:05.254Z,8.95
2022-10-22T21:45:32.441Z,7.45
2022-10-22T21:47:59.599Z,8.98
2022-10-22T21:50:26.826Z,12.18
2022-10-22T21:52:54.026Z,8.43
2022-10-22T21:55:21.290Z,8.38
2022-10-22T21:57:48.557Z,7.85
2022-10-22T22:00:20.271Z,9.85
2022-10-22T22:02:47.606Z,8.63
2022-10-22T22:05:17.419Z,12.25
2022-10-22T22:07:44.616Z,7.25
2022-10-22T22:10:11.742Z,10.05
2022-10-22T22:12:39.136Z,7.63
2022-10-22T22:15:07.280Z,7.97
2022-10-22T22:17:34.396Z,8.13
2022-10-22T22:20:03.023Z,10.10
2022-10-22T22:22:30.340Z,6.50
2022-10-22T22:24:57.522Z,9.75
2022-10-22T22:27:24.785Z,7.97
2022-10-22T22:29:53.849Z,7.93
2022-10-22T22:32:21.094Z,9.45
2022-10-22T22:34:48.325Z,7.03
2022-10-22T22:37:15.590Z,8.82
2022-10-22T22:39:42.808Z,9.57
2022-10-22T22:42:09.930Z,7.25
2022-10-22T22:44:39.072Z,8.02
2022-10-22T22:47:06.270Z,8.07
2022-10-22T22:49:35.681Z,7.40
2022-10-22T22:52:04.063Z,8.75
2022-10-22T22:54:31.385Z,9.25
2022-10-22T22:56:58.610Z,8.73
2022-10-22T22:59:25.862Z,7.60
2022-10-22T23:01:53.169Z,7.47
2022-10-22T23:04:25.389Z,7.03
2022-10-22T23:06:52.965Z,8.02
2022-10-22T23:11:53.290Z,8.13
2022-10-22T23:14:20.915Z,7.95
2022-10-22T23:16:50.400Z,7.25
2022-10-22T23:19:20.337Z,9.90
2022-10-22T23:21:56.930Z,8.85
2022-10-22T23:24:27.286Z,7.15
2022-10-22T23:26:55.600Z,9.95
2022-10-22T23:29:28.589Z,9.05
2022-10-22T23:31:56.165Z,8.82
2022-10-22T23:34:25.309Z,8.05
2022-10-22T23:36:53.360Z,8.45
2022-10-22T23:39:23.531Z,7.60
2022-10-22T23:41:51.104Z,9.35
2022-10-22T23:44:18.277Z,9.32
2022-10-22T23:46:45.648Z,9.63
2022-10-22T23:49:13.405Z,10.32
2022-10-22T23:51:41.467Z,12.25
2022-10-22T23:54:13.604Z,8.88
2022-10-22T23:56:41.024Z,7.97
2022-10-22T23:59:09.275Z,9.50
